Time;durP1;ratioP1;P1;durP2;ratioP2;P2;SDS_P1;SDS_P2;PMS_P1;PMS_P2;Temp;Humidity;BMP_temperature;BMP_pressure;BME280_temperature;BME280_humidity;BME280_pressure;Samples;Min_cycle;Max_cycle;Signal;HPM_P1;HPM_P2
2021/09/02 00:00:58;;;;;;;11.68;7.22;;;14.60;99.90;;;;;;5051206;28;20100;-46
2021/09/02 00:03:23;;;;;;;9.23;6.68;;;14.60;99.90;;;;;;5051578;28;20036;-45
2021/09/02 00:05:49;;;;;;;13.35;8.25;;;14.60;99.90;;;;;;5051209;28;20478;-45
2021/09/02 00:08:14;;;;;;;15.18;6.97;;;14.60;99.90;;;;;;5050881;28;20283;-45
2021/09/02 00:10:40;;;;;;;13.75;6.80;;;14.60;99.90;;;;;;5051363;28;20031;-45
2021/09/02 00:13:06;;;;;;;13.07;6.85;;;14.50;99.90;;;;;;5051316;28;20033;-46
2021/09/02 00:15:32;;;;;;;12.00;7.05;;;14.40;99.90;;;;;;5051094;28;20273;-46
2021/09/02 00:17:59;;;;;;;12.10;7.07;;;14.40;99.90;;;;;;5050952;28;20024;-47
2021/09/02 00:20:25;;;;;;;9.95;7.18;;;14.40;99.90;;;;;;5051258;28;20029;-47
2021/09/02 00:22:51;;;;;;;10.75;7.35;;;14.40;99.90;;;;;;5051240;28;20025;-48
2021/09/02 00:25:16;;;;;;;11.48;7.95;;;14.30;99.90;;;;;;5051088;28;20351;-45
2021/09/02 00:27:42;;;;;;;16.63;6.82;;;14.30;99.90;;;;;;5050520;28;20032;-45
2021/09/02 00:30:08;;;;;;;13.73;7.57;;;14.30;99.90;;;;;;5051075;28;20210;-46
2021/09/02 00:32:33;;;;;;;12.10;7.22;;;14.20;99.90;;;;;;5050957;28;20490;-47
2021/09/02 00:34:59;;;;;;;15.75;7.70;;;14.30;99.90;;;;;;5050759;28;20025;-45
2021/09/02 00:37:24;;;;;;;14.50;7.90;;;14.30;99.90;;;;;;5051130;28;20475;-46
2021/09/02 00:39:50;;;;;;;14.10;6.50;;;14.20;99.90;;;;;;5050695;28;20116;-45
2021/09/02 00:42:15;;;;;;;13.90;7.20;;;14.20;99.90;;;;;;5050579;28;20031;-47
2021/09/02 00:44:46;;;;;;;16.88;7.07;;;14.30;99.90;;;;;;5050903;28;20021;-46
2021/09/02 00:47:13;;;;;;;10.27;7.55;;;14.30;99.90;;;;;;5051265;28;20025;-47
2021/09/02 00:49:40;;;;;;;11.80;7.30;;;14.20;99.90;;;;;;5050359;28;20112;-47
2021/09/02 00:52:15;;;;;;;14.85;7.93;;;14.20;99.90;;;;;;5050529;28;20520;-46
2021/09/02 00:54:43;;;;;;;11.38;6.80;;;14.20;99.90;;;;;;5050625;28;20192;-47
2021/09/02 00:57:10;;;;;;;12.82;7.65;;;14.10;99.90;;;;;;5050630;28;20447;-46
2021/09/02 00:59:37;;;;;;;12.07;7.47;;;14.00;99.90;;;;;;5050435;28;20043;-46
2021/09/02 01:02:02;;;;;;;15.57;8.70;;;14.00;99.90;;;;;;5050559;28;20400;-48
2021/09/02 01:04:29;;;;;;;12.13;6.93;;;14.00;99.90;;;;;;5051572;28;20013;-46
2021/09/02 01:06:55;;;;;;;13.63;7.68;;;14.00;99.90;;;;;;5050529;28;20705;-49
2021/09/02 01:09:20;;;;;;;11.30;8.00;;;14.00;99.90;;;;;;5050564;28;20049;-51
2021/09/02 01:11:46;;;;;;;17.15;7.15;;;13.90;99.90;;;;;;5049359;28;20051;-46
2021/09/02 01:14:16;;;;;;;11.13;7.32;;;13.80;99.90;;;;;;5049260;28;20532;-46
2021/09/02 01:16:43;;;;;;;11.23;7.63;;;13.80;99.90;;;;;;5050559;28;20032;-50
2021/09/02 01:19:09;;;;;;;12.88;7.55;;;13.80;99.90;;;;;;5050057;28;20040;-49
2021/09/02 01:21:34;;;;;;;17.13;7.90;;;13.90;99.90;;;;;;5050491;28;20624;-49
2021/09/02 01:24:00;;;;;;;11.43;7.65;;;13.90;99.90;;;;;;5050307;28;20021;-47
2021/09/02 01:26:25;;;;;;;15.88;8.18;;;13.90;99.90;;;;;;5050285;28;20025;-47
2021/09/02 01:28:51;;;;;;;13.68;8.27;;;13.80;99.90;;;;;;5050015;28;20368;-49
2021/09/02 01:31:20;;;;;;;12.55;7.82;;;13.80;99.90;;;;;;5050352;28;20029;-47
2021/09/02 01:33:50;;;;;;;12.70;7.53;;;13.80;99.90;;;;;;5050385;28;20029;-50
2021/09/02 01:36:16;;;;;;;10.35;6.93;;;13.80;99.90;;;;;;5050292;28;20033;-48
2021/09/02 01:38:42;;;;;;;12.82;6.90;;;13.60;99.90;;;;;;5050022;28;20080;-46
2021/09/02 01:41:08;;;;;;;13.15;7.82;;;13.70;99.90;;;;;;5050383;28;20034;-50
2021/09/02 01:43:33;;;;;;;10.60;7.78;;;13.70;99.90;;;;;;5050503;28;20479;-52
2021/09/02 01:45:59;;;;;;;16.90;8.15;;;13.70;99.90;;;;;;5050383;28;20025;-46
2021/09/02 01:48:24;;;;;;;18.25;8.63;;;13.70;99.90;;;;;;5050012;28;20067;-47
2021/09/02 01:50:50;;;;;;;18.38;7.85;;;13.70;99.90;;;;;;5048908;28;20207;-48
2021/09/02 01:53:18;;;;;;;14.93;7.53;;;13.70;99.90;;;;;;5050042;28;20021;-51
2021/09/02 01:55:45;;;;;;;18.70;8.63;;;13.60;99.90;;;;;;5048822;28;20382;-48
2021/09/02 01:58:12;;;;;;;11.20;7.88;;;13.60;99.90;;;;;;5049504;28;20422;-49
2021/09/02 02:00:38;;;;;;;17.00;7.43;;;13.60;99.90;;;;;;5051127;28;20059;-47
2021/09/02 02:03:05;;;;;;;9.85;7.55;;;13.60;99.90;;;;;;5053887;28;20411;-48
2021/09/02 02:05:30;;;;;;;15.07;8.05;;;13.70;99.90;;;;;;5053611;28;20056;-46
2021/09/02 02:07:57;;;;;;;15.77;7.60;;;13.70;99.90;;;;;;5053822;28;20060;-47
2021/09/02 02:10:26;;;;;;;16.50;8.90;;;13.60;99.90;;;;;;5053654;28;20028;-47
2021/09/02 02:12:53;;;;;;;11.40;7.55;;;13.60;99.90;;;;;;5053886;28;20029;-48
2021/09/02 02:15:19;;;;;;;10.23;7.85;;;13.50;99.90;;;;;;5053652;28;20089;-48
2021/09/02 02:17:44;;;;;;;13.05;7.95;;;13.50;99.90;;;;;;5053169;28;20108;-51
2021/09/02 02:20:11;;;;;;;16.90;8.40;;;13.50;99.90;;;;;;5054200;28;20060;-45
2021/09/02 02:22:37;;;;;;;10.05;8.02;;;13.50;99.90;;;;;;5054836;28;20029;-45
2021/09/02 02:25:04;;;;;;;12.15;9.00;;;13.60;99.90;;;;;;5054342;28;20035;-47
2021/09/02 02:27:29;;;;;;;14.68;8.00;;;13.50;99.90;;;;;;5053164;28;20029;-45
2021/09/02 02:29:55;;;;;;;13.88;8.63;;;13.50;99.90;;;;;;5053118;28;20071;-46
2021/09/02 02:32:20;;;;;;;12.38;8.23;;;13.40;99.90;;;;;;5053227;28;20122;-48
2021/09/02 02:34:46;;;;;;;12.98;8.00;;;13.40;99.90;;;;;;5053121;28;20032;-45
2021/09/02 02:37:11;;;;;;;12.85;8.38;;;13.30;99.90;;;;;;5053275;28;20082;-45
2021/09/02 02:39:38;;;;;;;14.05;9.23;;;13.30;99.90;;;;;;5053047;28;20075;-45
2021/09/02 02:42:06;;;;;;;13.25;9.02;;;13.30;99.90;;;;;;5053200;28;20025;-45
2021/09/02 02:44:32;;;;;;;12.63;8.23;;;13.20;99.90;;;;;;5053026;28;20060;-45
2021/09/02 02:46:58;;;;;;;10.55;8.35;;;13.20;99.90;;;;;;5052961;28;20025;-46
2021/09/02 02:49:23;;;;;;;14.02;9.85;;;13.20;99.90;;;;;;5052448;28;20532;-50
2021/09/02 02:51:49;;;;;;;14.40;8.35;;;13.30;99.90;;;;;;5052898;28;20035;-48
2021/09/02 02:54:14;;;;;;;12.38;9.93;;;13.30;99.90;;;;;;5052689;28;20383;-45
2021/09/02 02:56:40;;;;;;;17.67;9.32;;;13.20;99.90;;;;;;5052764;28;20075;-45
2021/09/02 02:59:05;;;;;;;14.70;9.35;;;13.10;99.90;;;;;;5052198;28;20033;-47
2021/09/02 03:01:31;;;;;;;18.88;9.38;;;13.10;99.90;;;;;;5052691;28;20021;-45
2021/09/02 03:03:56;;;;;;;14.00;9.70;;;13.00;99.90;;;;;;5052598;28;20025;-49
2021/09/02 03:06:22;;;;;;;13.10;9.30;;;13.00;99.90;;;;;;5052558;28;20056;-48
2021/09/02 03:08:47;;;;;;;17.23;8.55;;;13.00;99.90;;;;;;5052120;28;20025;-47
2021/09/02 03:11:13;;;;;;;13.45;9.68;;;13.00;99.90;;;;;;5052477;28;20364;-43
2021/09/02 03:13:40;;;;;;;17.45;9.80;;;12.90;99.90;;;;;;5051868;28;20032;-46
2021/09/02 03:16:06;;;;;;;15.30;10.02;;;12.90;99.90;;;;;;5052423;28;20506;-45
2021/09/02 03:18:31;;;;;;;14.93;10.02;;;13.00;99.90;;;;;;5051946;28;20021;-51
2021/09/02 03:20:57;;;;;;;18.85;10.57;;;12.90;99.90;;;;;;5052478;28;20025;-46
2021/09/02 03:23:22;;;;;;;20.55;10.18;;;12.90;99.90;;;;;;5052142;28;20032;-48
2021/09/02 03:25:48;;;;;;;19.13;10.55;;;12.90;99.90;;;;;;5052413;28;20017;-46
2021/09/02 03:28:13;;;;;;;12.30;9.60;;;12.80;99.90;;;;;;5050528;28;20116;-46
2021/09/02 03:30:39;;;;;;;17.98;10.35;;;12.80;99.90;;;;;;5052082;28;20466;-46
2021/09/02 03:33:04;;;;;;;18.27;10.25;;;12.90;99.90;;;;;;5051947;28;20037;-45
2021/09/02 03:35:30;;;;;;;15.88;11.30;;;12.80;99.90;;;;;;5051992;28;20442;-47
2021/09/02 03:37:55;;;;;;;14.70;10.93;;;12.80;99.90;;;;;;5051593;28;20033;-45
2021/09/02 03:40:21;;;;;;;15.23;10.73;;;12.80;99.90;;;;;;5051864;28;20507;-49
2021/09/02 03:42:46;;;;;;;16.45;10.73;;;12.80;99.90;;;;;;5051967;28;20051;-47
2021/09/02 03:45:12;;;;;;;16.10;10.90;;;12.70;99.90;;;;;;5052400;28;20029;-47
2021/09/02 03:47:37;;;;;;;15.93;10.95;;;12.80;99.90;;;;;;5051495;28;20096;-48
2021/09/02 03:50:04;;;;;;;17.23;9.93;;;12.70;99.90;;;;;;5051608;28;20103;-44
2021/09/02 03:52:30;;;;;;;17.77;9.55;;;12.70;99.90;;;;;;5051695;28;20490;-47
2021/09/02 03:54:55;;;;;;;16.75;10.45;;;12.70;99.90;;;;;;5051615;28;20073;-45
2021/09/02 03:57:21;;;;;;;17.15;10.13;;;12.70;99.90;;;;;;5051392;28;20036;-44
2021/09/02 03:59:46;;;;;;;15.05;10.32;;;12.70;99.90;;;;;;5051482;28;20130;-45
2021/09/02 04:02:12;;;;;;;18.65;10.90;;;12.70;99.90;;;;;;5051560;28;20095;-45
2021/09/02 04:04:37;;;;;;;18.05;10.75;;;12.70;99.90;;;;;;5051487;28;20158;-47
2021/09/02 04:07:05;;;;;;;18.45;11.18;;;12.70;99.90;;;;;;5051388;28;20041;-46
2021/09/02 04:09:31;;;;;;;20.67;9.57;;;12.70;99.90;;;;;;5051224;28;20504;-47
2021/09/02 04:11:56;;;;;;;14.35;9.73;;;12.70;99.90;;;;;;5051808;28;20108;-45
2021/09/02 04:14:22;;;;;;;15.80;9.60;;;12.70;99.90;;;;;;5051866;28;20087;-46
2021/09/02 04:16:47;;;;;;;16.33;10.38;;;12.70;99.90;;;;;;5049955;28;20029;-46
2021/09/02 04:19:13;;;;;;;17.65;10.77;;;12.70;99.90;;;;;;5051080;28;20539;-46
2021/09/02 04:21:38;;;;;;;13.23;10.15;;;12.70;99.90;;;;;;5051312;28;20103;-51
2021/09/02 04:24:04;;;;;;;16.50;10.88;;;12.60;99.90;;;;;;5050318;28;20032;-49
2021/09/02 04:26:29;;;;;;;18.35;10.32;;;12.70;99.90;;;;;;5051218;28;20021;-46
2021/09/02 04:28:55;;;;;;;18.42;10.45;;;12.70;99.90;;;;;;5050777;28;20079;-46
2021/09/02 04:31:20;;;;;;;16.40;10.45;;;12.60;99.90;;;;;;5050979;28;20033;-47
2021/09/02 04:33:46;;;;;;;20.20;11.68;;;12.60;99.90;;;;;;5051426;28;20025;-47
2021/09/02 04:36:11;;;;;;;15.23;11.00;;;12.50;99.90;;;;;;5051182;28;20098;-47
2021/09/02 04:38:36;;;;;;;20.60;12.38;;;12.60;99.90;;;;;;5050695;28;20025;-47
2021/09/02 04:41:02;;;;;;;15.30;10.50;;;12.60;99.90;;;;;;5050835;28;20028;-45
2021/09/02 04:43:28;;;;;;;20.02;11.25;;;12.60;99.90;;;;;;5050720;28;20367;-46
2021/09/02 04:45:53;;;;;;;21.10;10.60;;;12.60;99.90;;;;;;5050702;28;20501;-44
2021/09/02 04:48:21;;;;;;;16.63;10.70;;;12.60;99.90;;;;;;5050562;28;20138;-44
2021/09/02 04:50:48;;;;;;;18.95;11.18;;;12.60;99.90;;;;;;5050687;28;20082;-48
2021/09/02 04:53:15;;;;;;;16.63;11.02;;;12.60;99.90;;;;;;5050582;28;20032;-45
2021/09/02 04:55:40;;;;;;;17.85;11.63;;;12.50;99.90;;;;;;5050573;28;20108;-47
2021/09/02 04:58:08;;;;;;;21.10;12.48;;;12.50;99.90;;;;;;5050119;28;20108;-46
2021/09/02 05:00:35;;;;;;;19.13;11.27;;;12.50;99.90;;;;;;5050361;28;20482;-45
2021/09/02 05:03:01;;;;;;;20.60;11.63;;;12.50;99.90;;;;;;5050449;28;20021;-44
2021/09/02 05:05:27;;;;;;;21.70;11.38;;;12.50;99.90;;;;;;5050465;28;20100;-48
2021/09/02 05:07:52;;;;;;;21.73;11.30;;;12.40;99.90;;;;;;5050249;28;20025;-45
2021/09/02 05:10:18;;;;;;;16.80;11.80;;;12.40;99.90;;;;;;5050484;28;20053;-46
2021/09/02 05:12:43;;;;;;;12.85;10.63;;;12.40;99.90;;;;;;5050486;28;20017;-46
2021/09/02 05:15:09;;;;;;;22.70;12.43;;;12.40;99.90;;;;;;5050660;28;20100;-46
2021/09/02 05:17:35;;;;;;;14.98;11.98;;;12.40;99.90;;;;;;5050598;28;20079;-46
2021/09/02 05:20:00;;;;;;;19.63;11.18;;;12.40;99.90;;;;;;5050577;28;20025;-46
2021/09/02 05:22:26;;;;;;;25.80;12.63;;;12.50;99.90;;;;;;5050619;28;20063;-46
2021/09/02 05:24:52;;;;;;;15.65;12.25;;;12.50;99.90;;;;;;5050575;28;20022;-47
2021/09/02 05:27:17;;;;;;;14.75;11.57;;;12.50;99.90;;;;;;5049914;28;20028;-47
2021/09/02 05:29:43;;;;;;;23.65;13.23;;;12.60;99.90;;;;;;5050331;28;20073;-47
2021/09/02 05:32:09;;;;;;;19.75;11.38;;;12.60;99.90;;;;;;5050210;28;20214;-46
2021/09/02 05:34:34;;;;;;;14.60;12.10;;;12.70;99.90;;;;;;5050384;28;20032;-46
2021/09/02 05:37:00;;;;;;;16.40;11.75;;;12.70;99.90;;;;;;5053417;28;20090;-46
2021/09/02 05:39:25;;;;;;;21.42;13.32;;;12.70;99.90;;;;;;5053655;28;20025;-46
2021/09/02 05:41:51;;;;;;;16.58;11.48;;;12.80;99.90;;;;;;5054073;28;20035;-45
2021/09/02 05:44:17;;;;;;;19.60;12.38;;;12.90;99.90;;;;;;5054326;28;20025;-46
2021/09/02 05:46:43;;;;;;;19.33;11.55;;;13.00;99.90;;;;;;5055572;28;20044;-47
2021/09/02 05:49:09;;;;;;;19.92;12.00;;;13.10;99.90;;;;;;5054028;28;20040;-48
2021/09/02 05:51:34;;;;;;;23.27;12.00;;;13.00;99.90;;;;;;5053888;28;20071;-47
2021/09/02 05:54:00;;;;;;;19.58;12.15;;;13.10;99.90;;;;;;5053898;28;20040;-50
2021/09/02 05:56:25;;;;;;;22.20;12.82;;;13.00;99.90;;;;;;5053916;28;20037;-46
2021/09/02 05:58:51;;;;;;;16.92;11.68;;;13.00;99.90;;;;;;5053272;28;20072;-47
2021/09/02 06:01:16;;;;;;;23.25;13.82;;;13.10;99.90;;;;;;5053682;28;20561;-48
2021/09/02 06:03:44;;;;;;;23.20;12.18;;;13.10;99.90;;;;;;5053786;28;20037;-46
2021/09/02 06:06:09;;;;;;;17.05;12.30;;;13.10;99.90;;;;;;5053672;28;20071;-51
2021/09/02 06:08:35;;;;;;;24.85;12.88;;;13.10;99.90;;;;;;5053298;28;20037;-50
2021/09/02 06:11:03;;;;;;;20.88;12.98;;;13.10;99.90;;;;;;5053974;28;20048;-48
2021/09/02 06:13:37;;;;;;;16.88;12.02;;;13.30;99.90;;;;;;5053353;28;20036;-47
2021/09/02 06:16:03;;;;;;;26.30;12.57;;;13.30;99.90;;;;;;5053527;28;20033;-49
2021/09/02 06:18:29;;;;;;;18.15;11.27;;;13.40;99.90;;;;;;5052995;28;20419;-49
2021/09/02 06:20:56;;;;;;;23.05;12.40;;;13.60;99.90;;;;;;5053382;28;20550;-48
2021/09/02 06:23:21;;;;;;;17.25;12.32;;;13.80;99.90;;;;;;5053309;28;20155;-47
2021/09/02 06:25:47;;;;;;;17.08;11.20;;;13.80;99.90;;;;;;5053350;28;20108;-49
2021/09/02 06:28:13;;;;;;;17.15;11.27;;;13.80;99.90;;;;;;5052882;28;20528;-49
2021/09/02 06:30:39;;;;;;;16.33;11.77;;;13.80;99.90;;;;;;5051705;28;20029;-51
2021/09/02 06:33:05;;;;;;;17.90;11.77;;;13.80;99.90;;;;;;5053010;28;20043;-48
2021/09/02 06:35:30;;;;;;;16.38;11.15;;;13.80;99.90;;;;;;5053224;28;20025;-47
2021/09/02 06:37:56;;;;;;;19.38;13.05;;;14.00;99.90;;;;;;5052870;28;20439;-50
2021/09/02 06:40:22;;;;;;;21.42;12.43;;;14.20;99.90;;;;;;5052979;28;20032;-45
2021/09/02 06:42:48;;;;;;;17.20;11.80;;;14.20;99.90;;;;;;5052983;28;20483;-48
2021/09/02 06:45:14;;;;;;;16.95;12.25;;;14.10;99.90;;;;;;5053022;28;20031;-49
2021/09/02 06:47:41;;;;;;;18.40;12.90;;;14.10;99.90;;;;;;5051716;28;20040;-48
2021/09/02 06:50:12;;;;;;;20.35;11.85;;;14.00;99.90;;;;;;5052899;28;20033;-46
2021/09/02 06:52:39;;;;;;;19.50;13.00;;;14.10;99.90;;;;;;5053269;28;20029;-47
2021/09/02 06:55:05;;;;;;;21.77;11.80;;;14.30;99.90;;;;;;5052708;28;20052;-50
2021/09/02 06:57:31;;;;;;;21.38;10.85;;;14.20;99.90;;;;;;5052343;28;20061;-49
2021/09/02 06:59:56;;;;;;;18.00;10.52;;;14.30;99.90;;;;;;5052522;28;20453;-46
2021/09/02 07:02:22;;;;;;;15.88;10.65;;;14.50;99.90;;;;;;5052632;28;20033;-47
2021/09/02 07:04:48;;;;;;;12.75;8.68;;;14.80;99.90;;;;;;5053708;28;20032;-45
2021/09/02 07:07:14;;;;;;;15.10;10.52;;;15.10;99.90;;;;;;5052308;28;20043;-50
2021/09/02 07:09:39;;;;;;;20.00;10.10;;;15.20;99.90;;;;;;5052296;28;20499;-47
2021/09/02 07:12:05;;;;;;;14.43;10.25;;;15.20;99.90;;;;;;5052631;28;20441;-47
2021/09/02 07:14:31;;;;;;;14.90;10.32;;;15.10;99.90;;;;;;5052446;28;20505;-51
2021/09/02 07:16:56;;;;;;;18.63;10.73;;;15.10;99.90;;;;;;5052023;28;20390;-49
2021/09/02 07:19:22;;;;;;;15.05;9.75;;;15.10;99.90;;;;;;5052176;28;20112;-46
2021/09/02 07:21:47;;;;;;;14.43;9.73;;;15.20;99.90;;;;;;5052409;28;20032;-47
2021/09/02 07:24:13;;;;;;;15.07;10.00;;;15.30;99.90;;;;;;5052270;28;20025;-50
2021/09/02 07:26:39;;;;;;;15.32;9.75;;;15.40;99.90;;;;;;5052217;28;20025;-46
2021/09/02 07:29:06;;;;;;;11.57;8.27;;;15.50;99.90;;;;;;5051849;28;20048;-50
2021/09/02 07:31:32;;;;;;;15.75;8.35;;;15.60;99.90;;;;;;5052379;28;20032;-50
2021/09/02 07:33:58;;;;;;;15.68;8.27;;;15.60;99.90;;;;;;5052203;28;20025;-45
2021/09/02 07:36:23;;;;;;;10.88;8.20;;;15.60;99.90;;;;;;5052061;28;20025;-46
2021/09/02 07:38:49;;;;;;;17.00;8.10;;;15.70;99.90;;;;;;5051703;28;20033;-48
2021/09/02 07:41:14;;;;;;;11.82;8.13;;;15.80;99.90;;;;;;5052007;28;20380;-48
2021/09/02 07:43:40;;;;;;;11.70;8.50;;;15.90;99.90;;;;;;5051987;28;20044;-47
2021/09/02 07:46:06;;;;;;;11.43;7.35;;;16.10;99.90;;;;;;5051911;28;20074;-47
2021/09/02 07:48:31;;;;;;;10.73;7.07;;;16.30;99.90;;;;;;5051630;28;20490;-52
2021/09/02 07:50:57;;;;;;;9.07;6.55;;;16.50;99.90;;;;;;5051890;28;20029;-48
2021/09/02 07:53:22;;;;;;;9.60;7.35;;;16.90;99.90;;;;;;5051732;28;20096;-48
2021/09/02 07:55:48;;;;;;;11.93;6.93;;;17.50;99.90;;;;;;5051731;28;20031;-51
2021/09/02 07:58:13;;;;;;;7.70;6.07;;;17.90;99.90;;;;;;5051210;28;20021;-46
2021/09/02 08:00:39;;;;;;;9.80;6.00;;;18.10;99.90;;;;;;5051735;28;20502;-49
2021/09/02 08:03:05;;;;;;;12.40;6.40;;;18.40;99.90;;;;;;5051701;28;20108;-52
2021/09/02 08:05:30;;;;;;;11.80;6.78;;;19.00;99.90;;;;;;5051845;28;20512;-50
2021/09/02 08:07:56;;;;;;;13.63;6.45;;;19.50;99.90;;;;;;5051469;28;20021;-44
2021/09/02 08:10:23;;;;;;;12.13;5.88;;;20.00;99.90;;;;;;5051478;28;20079;-49
2021/09/02 08:12:50;;;;;;;9.70;5.85;;;20.90;99.60;;;;;;5051417;28;20025;-49
2021/09/02 08:15:17;;;;;;;8.30;4.97;;;21.80;97.90;;;;;;5050753;28;20478;-44
2021/09/02 08:17:43;;;;;;;7.47;5.00;;;22.70;96.10;;;;;;5052451;28;20036;-46
2021/09/02 08:20:10;;;;;;;9.50;5.43;;;23.70;94.20;;;;;;5050913;28;20383;-45
2021/09/02 08:22:35;;;;;;;10.18;5.43;;;24.20;93.70;;;;;;5051039;28;20032;-44
2021/09/02 08:25:01;;;;;;;9.20;5.78;;;24.90;92.30;;;;;;5051259;28;20092;-46
2021/09/02 08:27:26;;;;;;;6.13;5.07;;;24.60;91.50;;;;;;5050823;28;20059;-46
2021/09/02 08:29:53;;;;;;;7.72;5.78;;;23.90;93.00;;;;;;5050968;28;20029;-47
2021/09/02 08:32:18;;;;;;;8.30;6.10;;;23.40;93.50;;;;;;5050979;28;20398;-48
2021/09/02 08:34:44;;;;;;;12.10;5.55;;;22.90;94.10;;;;;;5051049;28;20083;-44
2021/09/02 08:37:09;;;;;;;7.43;5.70;;;23.30;94.30;;;;;;5050900;28;20087;-48
2021/09/02 08:39:35;;;;;;;10.98;6.00;;;23.60;93.10;;;;;;5051036;28;20529;-45
2021/09/02 08:42:02;;;;;;;9.57;6.32;;;23.60;93.20;;;;;;5051049;28;20102;-47
2021/09/02 08:44:27;;;;;;;8.88;5.90;;;23.40;93.10;;;;;;5050887;28;20059;-46
2021/09/02 08:46:55;;;;;;;12.25;5.85;;;23.40;93.40;;;;;;5050798;28;20052;-49
2021/09/02 08:49:24;;;;;;;11.25;6.82;;;23.80;93.00;;;;;;5050394;28;20028;-46
2021/09/02 08:51:50;;;;;;;8.75;6.55;;;24.00;92.30;;;;;;5050505;28;20085;-48
2021/09/02 08:54:17;;;;;;;7.70;5.80;;;23.50;93.30;;;;;;5050493;28;20536;-48
2021/09/02 08:56:43;;;;;;;8.75;5.55;;;24.00;92.60;;;;;;5050592;28;20120;-49
2021/09/02 08:59:08;;;;;;;8.35;5.43;;;25.00;91.60;;;;;;5049938;28;20377;-46
2021/09/02 09:01:34;;;;;;;8.27;5.80;;;25.50;90.80;;;;;;5050316;28;20036;-46
2021/09/02 09:04:11;;;;;;;8.40;5.47;;;25.40;89.80;;;;;;5050410;28;20021;-45
2021/09/02 09:06:37;;;;;;;8.05;5.35;;;25.40;90.10;;;;;;5050470;28;20021;-50
2021/09/02 09:09:11;;;;;;;6.95;5.53;;;25.60;90.20;;;;;;5050080;28;20075;-49
2021/09/02 09:11:47;;;;;;;12.70;6.70;;;25.30;90.30;;;;;;5050016;28;20392;-44
2021/09/02 09:14:16;;;;;;;11.35;7.20;;;25.00;90.40;;;;;;5050446;28;20028;-44
2021/09/02 09:16:51;;;;;;;12.45;6.85;;;23.80;92.10;;;;;;5050359;28;20021;-45
2021/09/02 09:19:38;;;;;;;14.27;6.57;;;23.40;93.30;;;;;;5049649;28;20021;-46
2021/09/02 09:22:06;;;;;;;9.48;6.93;;;23.10;93.40;;;;;;5049975;28;20030;-45
2021/09/02 09:24:53;;;;;;;8.38;6.10;;;22.90;93.90;;;;;;5050327;28;20052;-46
2021/09/02 09:27:42;;;;;;;7.90;6.10;;;22.70;93.50;;;;;;5049760;28;20021;-50
2021/09/02 09:30:11;;;;;;;13.07;6.25;;;22.40;94.10;;;;;;5049903;28;20206;-46
2021/09/02 09:32:54;;;;;;;11.73;5.88;;;22.40;94.40;;;;;;5050135;28;20036;-46
2021/09/02 09:35:24;;;;;;;10.60;6.43;;;22.40;93.80;;;;;;5048881;28;20108;-48
2021/09/02 09:38:12;;;;;;;10.40;6.90;;;22.50;94.20;;;;;;5049894;28;20032;-45
2021/09/02 09:40:40;;;;;;;11.75;6.60;;;22.40;93.60;;;;;;5050395;28;20025;-49
2021/09/02 09:43:16;;;;;;;9.35;6.38;;;22.20;94.10;;;;;;5049868;28;20034;-46
2021/09/02 09:45:57;;;;;;;8.65;5.97;;;22.00;94.40;;;;;;5050202;28;20021;-48
2021/09/02 09:48:23;;;;;;;9.05;5.78;;;22.00;94.20;;;;;;5049763;28;20025;-47
2021/09/02 09:51:07;;;;;;;8.60;5.93;;;22.10;94.40;;;;;;5048713;28;20120;-46
2021/09/02 09:53:33;;;;;;;8.70;6.68;;;22.30;94.70;;;;;;5048318;28;20021;-45
2021/09/02 09:55:59;;;;;;;10.98;6.63;;;22.50;93.40;;;;;;5049737;28;20029;-46
2021/09/02 09:58:27;;;;;;;8.98;5.72;;;22.50;93.50;;;;;;5049260;28;20530;-48
2021/09/02 10:00:54;;;;;;;9.00;6.70;;;22.30;93.70;;;;;;5048535;28;20148;-47
2021/09/02 10:03:21;;;;;;;12.13;6.80;;;22.20;94.20;;;;;;5049893;28;20021;-45
2021/09/02 10:05:50;;;;;;;8.30;6.00;;;22.20;94.30;;;;;;5049856;28;20041;-49
2021/09/02 10:08:17;;;;;;;8.82;6.22;;;22.20;94.20;;;;;;5049562;28;20036;-45
2021/09/02 10:10:43;;;;;;;17.65;6.00;;;22.40;94.50;;;;;;5049773;28;20478;-47
2021/09/02 10:13:09;;;;;;;7.55;6.45;;;22.60;94.00;;;;;;5049741;28;20070;-50
2021/09/02 10:15:35;;;;;;;7.97;6.53;;;22.60;93.20;;;;;;5049335;28;20133;-47
2021/09/02 10:18:02;;;;;;;11.07;6.38;;;22.50;92.90;;;;;;5049358;28;20095;-45
2021/09/02 10:20:38;;;;;;;8.93;5.68;;;22.50;93.10;;;;;;5049591;28;20036;-46
2021/09/02 10:23:05;;;;;;;7.40;5.47;;;22.40;93.60;;;;;;5051312;28;20055;-43
2021/09/02 10:25:33;;;;;;;12.70;6.90;;;22.40;93.80;;;;;;5053260;28;20070;-46
2021/09/02 10:28:00;;;;;;;12.00;9.13;;;22.40;93.00;;;;;;5053597;28;20363;-46
2021/09/02 10:30:27;;;;;;;10.32;6.70;;;22.30;93.30;;;;;;5053042;28;20036;-46
2021/09/02 10:32:54;;;;;;;9.80;7.22;;;22.40;93.80;;;;;;5052998;28;20079;-45
2021/09/02 10:35:19;;;;;;;8.20;6.68;;;22.20;93.50;;;;;;5053131;28;20021;-47
2021/09/02 10:37:45;;;;;;;11.43;7.22;;;22.20;93.70;;;;;;5051361;28;20494;-45
2021/09/02 10:40:16;;;;;;;7.57;5.75;;;22.20;93.90;;;;;;5052378;28;20025;-46
2021/09/02 10:42:56;;;;;;;8.07;5.72;;;22.20;94.40;;;;;;5052607;28;20451;-46
2021/09/02 10:45:27;;;;;;;9.25;6.35;;;22.30;94.60;;;;;;5052263;28;20021;-45
2021/09/02 10:48:14;;;;;;;8.60;6.13;;;22.30;94.10;;;;;;5052534;28;20017;-44
2021/09/02 10:50:42;;;;;;;12.82;5.90;;;22.20;93.70;;;;;;5052247;28;20063;-49
2021/09/02 10:53:09;;;;;;;9.52;5.43;;;22.20;93.10;;;;;;5052698;28;20096;-47
2021/09/02 10:55:37;;;;;;;8.82;5.78;;;22.10;93.10;;;;;;5052886;28;20107;-47
2021/09/02 10:58:04;;;;;;;7.78;6.18;;;22.00;93.10;;;;;;5052084;28;20017;-46
2021/09/02 11:00:39;;;;;;;9.82;6.82;;;22.00;93.50;;;;;;5052880;28;20025;-48
2021/09/02 11:03:25;;;;;;;9.00;6.25;;;22.10;93.90;;;;;;5052656;28;20025;-46
2021/09/02 11:05:55;;;;;;;7.70;6.28;;;22.10;94.10;;;;;;5052377;28;20087;-47
2021/09/02 11:08:37;;;;;;;9.75;5.95;;;22.20;93.40;;;;;;5052199;28;20070;-47
2021/09/02 11:11:20;;;;;;;8.07;5.20;;;22.20;93.20;;;;;;5052513;28;20052;-45
2021/09/02 11:13:51;;;;;;;8.70;6.03;;;22.20;92.00;;;;;;5052975;28;20505;-45
2021/09/02 11:16:33;;;;;;;7.90;5.43;;;22.20;92.40;;;;;;5052315;28;20403;-47
2021/09/02 11:18:59;;;;;;;7.68;5.53;;;22.30;92.30;;;;;;5052075;28;20036;-47
2021/09/02 11:21:27;;;;;;;9.40;5.72;;;22.40;92.60;;;;;;5052187;28;20029;-44
2021/09/02 11:23:58;;;;;;;8.90;6.13;;;22.40;92.30;;;;;;5052231;28;20024;-44
2021/09/02 11:26:34;;;;;;;6.47;5.78;;;22.40;92.50;;;;;;5052238;28;20123;-49
2021/09/02 11:29:00;;;;;;;13.75;9.93;;;22.40;92.90;;;;;;5051864;28;20401;-47
2021/09/02 11:31:27;;;;;;;9.43;6.15;;;22.40;92.30;;;;;;5051909;28;20032;-45
2021/09/02 11:33:52;;;;;;;13.85;6.65;;;22.30;92.60;;;;;;5051715;28;20063;-47
2021/09/02 11:36:19;;;;;;;8.35;5.63;;;22.20;93.20;;;;;;5052026;28;20431;-45
2021/09/02 11:38:46;;;;;;;10.23;5.78;;;22.10;92.30;;;;;;5051597;28;20056;-45
2021/09/02 11:41:20;;;;;;;12.48;6.22;;;22.00;92.50;;;;;;5051860;28;20020;-46
2021/09/02 11:43:47;;;;;;;8.50;5.78;;;22.10;92.90;;;;;;5051823;28;20017;-51
2021/09/02 11:46:15;;;;;;;6.70;6.00;;;22.10;93.10;;;;;;5051600;28;20021;-44
2021/09/02 11:48:54;;;;;;;7.63;6.43;;;22.20;93.10;;;;;;5051428;28;20028;-49
2021/09/02 11:51:31;;;;;;;6.75;5.55;;;22.10;92.70;;;;;;5051528;28;20021;-49
2021/09/02 11:54:04;;;;;;;9.27;5.90;;;22.10;92.90;;;;;;5051477;28;20033;-47
2021/09/02 11:56:31;;;;;;;10.85;6.10;;;22.20;92.60;;;;;;5051587;28;20029;-47
2021/09/02 11:58:58;;;;;;;8.75;5.40;;;22.30;92.70;;;;;;5051056;28;20063;-49
2021/09/02 12:01:23;;;;;;;7.00;5.72;;;22.30;92.10;;;;;;5051297;28;20032;-47
2021/09/02 12:03:50;;;;;;;8.45;5.03;;;22.20;91.70;;;;;;5051215;28;20025;-45
2021/09/02 12:06:21;;;;;;;7.35;5.28;;;22.20;92.10;;;;;;5051086;28;20024;-50
2021/09/02 12:08:46;;;;;;;8.30;5.22;;;22.20;92.50;;;;;;5051053;28;20021;-50
2021/09/02 12:11:13;;;;;;;10.02;5.38;;;22.40;92.30;;;;;;5050978;28;20047;-46
2021/09/02 12:13:39;;;;;;;10.70;5.53;;;22.40;91.60;;;;;;5051112;28;20402;-46
2021/09/02 12:16:09;;;;;;;6.80;5.35;;;22.40;91.90;;;;;;5050678;28;20035;-49
2021/09/02 12:18:41;;;;;;;7.95;5.70;;;22.40;92.10;;;;;;5050525;28;20025;-45
2021/09/02 12:21:14;;;;;;;7.32;5.45;;;22.50;92.60;;;;;;5051022;28;20048;-44
2021/09/02 12:23:44;;;;;;;8.25;4.80;;;22.50;92.40;;;;;;5051436;28;20079;-47
2021/09/02 12:26:09;;;;;;;6.18;4.57;;;22.50;91.40;;;;;;5051205;28;20427;-46
2021/09/02 12:28:41;;;;;;;10.43;5.35;;;22.60;91.60;;;;;;5048943;28;20113;-45
2021/09/02 12:31:24;;;;;;;7.43;5.07;;;22.70;91.10;;;;;;5051157;28;20028;-46
2021/09/02 12:34:15;;;;;;;6.72;4.70;;;22.60;90.60;;;;;;5051205;28;20025;-47
2021/09/02 12:36:42;;;;;;;6.63;5.35;;;22.50;90.90;;;;;;5050934;28;20379;-45